Time;durP1;ratioP1;P1;durP2;ratioP2;P2;SDS_P1;SDS_P2;PMS_P1;PMS_P2;Temp;Humidity;BMP_temperature;BMP_pressure;BME280_temperature;BME280_humidity;BME280_pressure;Samples;Min_cycle;Max_cycle;Signal;HPM_P1;HPM_P2
2023/02/12 00:01:45;;;;;;;21.08;3.83;;;6.20;96.70;;;;;;5004888;28;20050;-77
2023/02/12 00:04:12;;;;;;;29.63;3.45;;;6.20;96.70;;;;;;4986389;28;20061;-77
2023/02/12 00:06:39;;;;;;;23.67;4.13;;;6.20;96.70;;;;;;4989315;28;20053;-77
2023/02/12 00:09:06;;;;;;;21.08;3.63;;;6.20;96.60;;;;;;4993175;28;20062;-77
2023/02/12 00:11:32;;;;;;;20.42;3.97;;;6.20;96.60;;;;;;5004532;28;20150;-76
2023/02/12 00:14:01;;;;;;;22.60;4.18;;;6.20;96.80;;;;;;4986372;28;20459;-77
2023/02/12 00:16:28;;;;;;;23.55;4.15;;;6.20;96.70;;;;;;4985540;28;20050;-77
2023/02/12 00:18:57;;;;;;;31.30;4.07;;;6.20;96.70;;;;;;5003666;28;20123;-76
2023/02/12 00:21:24;;;;;;;30.38;4.53;;;6.20;96.70;;;;;;4991122;28;20073;-76
2023/02/12 00:23:51;;;;;;;24.00;4.15;;;6.20;96.70;;;;;;4987292;28;20046;-76
2023/02/12 00:26:20;;;;;;;20.65;4.28;;;6.20;96.80;;;;;;4993083;28;20053;-77
2023/02/12 00:28:47;;;;;;;21.73;4.07;;;6.20;96.90;;;;;;4985712;28;20057;-77
2023/02/12 00:31:20;;;;;;;37.92;4.88;;;6.20;96.90;;;;;;4987451;28;20483;-77
2023/02/12 00:33:47;;;;;;;23.85;4.88;;;6.10;96.90;;;;;;4990007;28;20085;-77
2023/02/12 00:36:17;;;;;;;33.03;5.10;;;6.10;96.90;;;;;;5004360;28;20061;-76
2023/02/12 00:38:44;;;;;;;28.73;4.53;;;6.10;97.00;;;;;;5003505;28;20042;-76
2023/02/12 00:41:12;;;;;;;31.23;4.88;;;6.10;97.10;;;;;;5003667;28;20053;-77
2023/02/12 00:43:39;;;;;;;28.05;4.80;;;6.10;97.10;;;;;;5004095;28;20525;-76
2023/02/12 00:46:06;;;;;;;28.60;4.88;;;6.10;97.30;;;;;;5002448;28;20054;-76
2023/02/12 00:48:34;;;;;;;25.65;4.55;;;6.10;97.30;;;;;;5003977;28;20049;-76
2023/02/12 00:51:01;;;;;;;26.10;4.43;;;6.10;97.40;;;;;;5002842;28;20491;-76
2023/02/12 00:53:29;;;;;;;41.40;5.25;;;6.10;97.50;;;;;;4995763;28;20058;-76
2023/02/12 00:55:56;;;;;;;28.95;5.57;;;6.10;97.50;;;;;;4985344;28;20498;-76
2023/02/12 00:58:24;;;;;;;25.92;5.40;;;6.10;97.60;;;;;;4986144;28;20077;-76
2023/02/12 01:00:51;;;;;;;24.63;4.13;;;6.10;97.70;;;;;;4986313;28;20046;-75
2023/02/12 01:03:18;;;;;;;30.73;4.93;;;6.10;97.60;;;;;;5003765;28;20466;-75
2023/02/12 01:05:45;;;;;;;30.25;5.43;;;6.00;97.70;;;;;;4985541;28;20396;-76
2023/02/12 01:08:14;;;;;;;34.65;5.22;;;6.10;97.70;;;;;;4986039;28;20278;-75
2023/02/12 01:10:42;;;;;;;27.15;4.57;;;6.00;97.70;;;;;;4985081;28;20056;-76
2023/02/12 01:13:14;;;;;;;17.98;4.97;;;6.10;97.70;;;;;;4991127;28;20422;-76
2023/02/12 01:15:41;;;;;;;25.95;4.68;;;6.00;97.70;;;;;;5003005;28;20057;-75
2023/02/12 01:18:08;;;;;;;33.55;4.40;;;6.10;97.70;;;;;;5003497;28;20050;-76
2023/02/12 01:20:35;;;;;;;34.45;5.25;;;6.10;97.70;;;;;;5002578;28;20058;-76
2023/02/12 01:23:02;;;;;;;29.63;4.45;;;6.00;97.70;;;;;;4991249;28;20045;-76
2023/02/12 01:25:29;;;;;;;25.65;3.83;;;6.00;97.70;;;;;;4984792;28;20553;-75
2023/02/12 01:27:55;;;;;;;19.00;3.90;;;6.10;97.70;;;;;;5003637;28;20485;-76
2023/02/12 01:30:23;;;;;;;29.15;4.72;;;6.00;97.70;;;;;;5002022;28;20569;-75
2023/02/12 01:32:50;;;;;;;19.05;4.28;;;6.00;97.70;;;;;;5005005;28;20056;-76
2023/02/12 01:35:17;;;;;;;34.13;4.80;;;6.00;97.80;;;;;;4985773;28;20054;-76
2023/02/12 01:37:44;;;;;;;33.42;4.97;;;6.00;97.70;;;;;;5002948;28;20056;-75
2023/02/12 01:40:14;;;;;;;30.75;4.70;;;6.00;97.70;;;;;;4984490;28;20053;-75
2023/02/12 01:42:41;;;;;;;36.75;5.50;;;5.90;97.70;;;;;;4991696;28;20072;-76
2023/02/12 01:45:11;;;;;;;30.20;3.70;;;5.90;97.90;;;;;;4986551;28;20061;-75
2023/02/12 01:47:40;;;;;;;33.95;4.35;;;5.90;98.00;;;;;;5002285;28;20294;-76
2023/02/12 01:50:13;;;;;;;35.10;4.75;;;5.90;98.00;;;;;;5001438;28;20586;-76
2023/02/12 01:52:45;;;;;;;21.92;5.35;;;5.90;98.00;;;;;;5003315;28;20056;-76
2023/02/12 01:55:13;;;;;;;35.85;5.38;;;5.80;98.10;;;;;;4990997;28;20061;-76
2023/02/12 01:57:44;;;;;;;34.67;5.10;;;5.90;98.10;;;;;;5010586;28;20053;-76
2023/02/12 02:00:14;;;;;;;25.73;5.05;;;5.90;98.30;;;;;;4992135;28;20570;-76
2023/02/12 02:02:50;;;;;;;35.83;5.90;;;5.90;98.20;;;;;;4990752;28;20054;-76
2023/02/12 02:05:25;;;;;;;34.80;6.07;;;5.90;98.10;;;;;;5006221;28;20054;-75
2023/02/12 02:07:53;;;;;;;;;;;5.90;98.10;;;;;;4992421;28;20049;-76
2023/02/12 02:10:19;;;;;;;31.13;5.97;;;5.90;98.10;;;;;;4989464;28;19932;-75
2023/02/12 02:15:33;;;;;;;39.00;7.38;;;5.90;98.20;;;;;;5002182;28;20060;-75
2023/02/12 02:18:08;;;;;;;30.58;9.55;;;5.90;98.40;;;;;;4993040;28;20065;-76
2023/02/12 02:21:24;;;;;;;27.40;8.50;;;5.90;98.60;;;;;;4991008;28;20060;-76
2023/02/12 02:23:51;;;;;;;31.67;9.23;;;5.90;98.60;;;;;;4980643;28;20141;-76
2023/02/12 02:26:36;;;;;;;38.70;10.32;;;5.90;98.70;;;;;;4988587;28;20061;-76
2023/02/12 02:29:06;;;;;;;37.72;11.10;;;5.90;98.60;;;;;;5002815;28;20077;-75
2023/02/12 02:31:43;;;;;;;44.83;11.48;;;5.90;98.70;;;;;;5006754;28;20057;-76
2023/02/12 02:34:39;;;;;;;35.22;9.80;;;5.90;98.80;;;;;;5005386;28;20050;-76
2023/02/12 02:37:18;;;;;;;32.55;8.95;;;5.90;98.80;;;;;;4987643;28;20529;-76
2023/02/12 02:39:53;;;;;;;44.75;10.02;;;5.90;98.80;;;;;;5005152;28;20061;-75
2023/02/12 02:42:36;;;;;;;46.88;9.30;;;5.80;99.00;;;;;;5004996;28;20050;-76
2023/02/12 02:45:33;;;;;;;32.42;9.45;;;5.80;99.00;;;;;;4988835;28;20411;-76
2023/02/12 02:48:20;;;;;;;30.08;9.45;;;5.80;99.10;;;;;;5006463;28;20042;-76
2023/02/12 02:50:54;;;;;;;39.35;8.32;;;5.80;99.10;;;;;;4984430;28;20057;-75
2023/02/12 02:53:30;;;;;;;43.78;7.85;;;5.80;99.20;;;;;;4989110;28;20070;-76
2023/02/12 02:56:01;;;;;;;41.45;8.93;;;5.80;99.40;;;;;;5003995;28;20476;-75
2023/02/12 02:58:57;;;;;;;31.98;8.10;;;5.80;99.40;;;;;;4992363;28;20079;-76
2023/02/12 03:01:39;;;;;;;46.47;8.93;;;5.80;99.60;;;;;;5003059;28;20058;-76
2023/02/12 03:04:22;;;;;;;29.85;8.90;;;5.80;99.70;;;;;;5005333;28;20523;-76
2023/02/12 03:06:57;;;;;;;39.78;8.88;;;5.80;99.70;;;;;;5002870;28;20533;-76
2023/02/12 03:09:42;;;;;;;33.15;7.93;;;5.80;99.80;;;;;;5003747;28;20076;-76
2023/02/12 03:12:14;;;;;;;46.70;7.90;;;5.80;100.00;;;;;;5005149;28;20058;-76
2023/02/12 03:14:47;;;;;;;42.40;8.02;;;5.80;100.00;;;;;;5004788;28;20573;-76
2023/02/12 03:17:31;;;;;;;30.08;7.75;;;5.80;100.00;;;;;;5002897;28;20056;-76
2023/02/12 03:20:09;;;;;;;35.65;7.13;;;5.80;100.00;;;;;;5004233;28;20537;-76
2023/02/12 03:22:41;;;;;;;45.03;11.70;;;5.80;100.00;;;;;;4992627;28;20049;-76
2023/02/12 03:25:13;;;;;;;53.17;12.73;;;5.80;100.00;;;;;;4987783;28;20077;-75
2023/02/12 03:27:48;;;;;;;46.25;15.23;;;5.80;100.00;;;;;;4990424;28;20048;-76
2023/02/12 03:30:15;;;;;;;;;;;5.80;100.00;;;;;;5007613;28;20057;-76
2023/02/12 03:33:08;;;;;;;56.30;15.27;;;5.80;100.00;;;;;;4987478;28;20060;-76
2023/02/12 03:35:46;;;;;;;64.25;21.50;;;5.80;100.00;;;;;;5008843;28;20045;-76
2023/02/12 03:38:35;;;;;;;72.22;24.70;;;5.70;100.00;;;;;;5005331;28;20064;-76
2023/02/12 03:41:14;;;;;;;66.07;22.75;;;5.80;100.00;;;;;;5004887;28;20145;-75
2023/02/12 03:43:54;;;;;;;60.35;20.73;;;5.70;100.00;;;;;;5005249;28;20045;-76
2023/02/12 03:46:26;;;;;;;61.47;21.98;;;5.80;100.00;;;;;;5004908;28;20379;-76
2023/02/12 03:48:56;;;;;;;61.63;21.00;;;5.80;100.00;;;;;;5007052;28;20467;-76
2023/02/12 03:51:36;;;;;;;57.92;19.30;;;5.70;100.00;;;;;;4989391;28;20375;-76
2023/02/12 03:54:04;;;;;;;48.72;18.35;;;5.80;100.00;;;;;;4989968;28;20149;-76
2023/02/12 03:56:37;;;;;;;44.35;16.00;;;5.70;100.00;;;;;;5004486;28;20508;-76
2023/02/12 03:59:05;;;;;;;49.15;15.68;;;5.70;100.00;;;;;;4990212;28;20535;-76
2023/02/12 04:01:33;;;;;;;45.13;14.40;;;5.70;100.00;;;;;;5004714;28;20046;-76
2023/02/12 04:04:06;;;;;;;40.03;11.20;;;5.70;100.00;;;;;;5003812;28;20074;-76
2023/02/12 04:06:33;;;;;;;30.83;10.45;;;5.70;100.00;;;;;;4987366;28;20482;-76
2023/02/12 04:09:06;;;;;;;41.67;10.27;;;5.70;100.00;;;;;;4986397;28;20054;-76
2023/02/12 04:11:52;;;;;;;34.88;9.45;;;5.70;100.00;;;;;;4988534;28;20050;-76
2023/02/12 04:14:46;;;;;;;39.65;8.85;;;5.70;100.00;;;;;;5003845;28;20057;-75
2023/02/12 04:17:19;;;;;;;43.95;8.95;;;5.70;100.00;;;;;;5002934;28;20392;-76
2023/02/12 04:20:20;;;;;;;38.38;8.15;;;5.70;100.00;;;;;;4985764;28;20124;-76
2023/02/12 04:23:09;;;;;;;28.33;7.70;;;5.70;100.00;;;;;;5000858;28;20052;-75
2023/02/12 04:25:48;;;;;;;36.92;7.18;;;5.70;100.00;;;;;;4986166;28;20513;-76
2023/02/12 04:28:46;;;;;;;34.10;7.97;;;5.70;100.00;;;;;;5003056;28;20403;-75
2023/02/12 04:31:22;;;;;;;30.60;7.90;;;5.70;100.00;;;;;;4986376;28;20366;-76
2023/02/12 04:34:01;;;;;;;21.42;7.65;;;5.70;100.00;;;;;;4990251;28;20128;-76
2023/02/12 04:36:34;;;;;;;24.58;7.40;;;5.70;100.00;;;;;;4986559;28;20502;-76
2023/02/12 04:39:09;;;;;;;35.15;7.18;;;5.70;100.00;;;;;;5003768;28;20053;-77
2023/02/12 04:41:38;;;;;;;25.85;6.97;;;5.80;100.00;;;;;;5003392;28;20054;-77
2023/02/12 04:44:22;;;;;;;31.40;7.30;;;5.80;100.00;;;;;;4989290;28;20064;-76
2023/02/12 04:46:49;;;;;;;24.52;5.95;;;5.70;100.00;;;;;;5002621;28;20126;-76
2023/02/12 04:49:19;;;;;;;26.83;6.47;;;5.80;100.00;;;;;;4987472;28;20054;-76
2023/02/12 04:51:47;;;;;;;30.20;6.75;;;5.80;100.00;;;;;;5004045;28;20065;-76
2023/02/12 04:54:15;;;;;;;21.52;6.00;;;5.80;100.00;;;;;;5003519;28;20157;-76
2023/02/12 04:56:42;;;;;;;20.55;6.15;;;5.80;100.00;;;;;;4989535;28;20529;-76
2023/02/12 04:59:09;;;;;;;25.80;6.05;;;5.80;100.00;;;;;;5002656;28;20061;-76
2023/02/12 05:01:38;;;;;;;25.02;7.00;;;5.80;100.00;;;;;;4985766;28;20426;-76
2023/02/12 05:04:06;;;;;;;22.10;6.63;;;5.80;100.00;;;;;;5003227;28;20491;-77
2023/02/12 05:06:37;;;;;;;25.63;7.57;;;5.80;100.00;;;;;;5003624;28;20054;-77
2023/02/12 05:09:06;;;;;;;24.27;7.50;;;5.80;100.00;;;;;;5002992;28;20050;-77
2023/02/12 05:11:33;;;;;;;18.85;6.78;;;5.80;100.00;;;;;;5003482;28;20049;-76
2023/02/12 05:14:00;;;;;;;23.65;7.20;;;5.80;100.00;;;;;;4992261;28;20443;-77
2023/02/12 05:16:26;;;;;;;21.52;7.28;;;5.80;100.00;;;;;;4989266;28;20042;-77
2023/02/12 05:18:53;;;;;;;25.45;6.93;;;5.80;100.00;;;;;;5002701;28;20049;-76
2023/02/12 05:21:20;;;;;;;30.17;8.75;;;5.80;100.00;;;;;;5003441;28;20491;-76
2023/02/12 05:23:47;;;;;;;28.70;7.05;;;5.80;100.00;;;;;;5004199;28;20056;-76
2023/02/12 05:26:18;;;;;;;22.67;7.03;;;5.80;100.00;;;;;;5003194;28;20128;-77
2023/02/12 05:28:45;;;;;;;26.42;7.78;;;5.80;100.00;;;;;;5015196;28;20048;-77
2023/02/12 05:31:15;;;;;;;24.77;8.07;;;5.80;100.00;;;;;;5004396;28;20058;-77
2023/02/12 05:33:47;;;;;;;21.13;6.20;;;5.80;100.00;;;;;;4989028;28;20049;-76
2023/02/12 05:36:17;;;;;;;23.40;6.85;;;5.80;100.00;;;;;;5005191;28;20483;-76
2023/02/12 05:38:44;;;;;;;20.30;6.68;;;5.80;100.00;;;;;;4987481;28;20578;-77
2023/02/12 05:41:20;;;;;;;22.45;5.95;;;5.80;100.00;;;;;;4988187;28;20124;-77
2023/02/12 05:43:48;;;;;;;16.75;6.07;;;5.80;100.00;;;;;;4982135;28;20490;-77
2023/02/12 05:46:17;;;;;;;21.75;7.05;;;5.80;100.00;;;;;;4990577;28;20384;-77
2023/02/12 05:48:45;;;;;;;18.45;5.13;;;5.80;100.00;;;;;;4987451;28;20042;-77
2023/02/12 05:51:20;;;;;;;21.88;5.68;;;5.80;100.00;;;;;;4988223;28;20051;-76
2023/02/12 05:53:49;;;;;;;15.85;4.88;;;5.70;100.00;;;;;;5005502;28;20062;-76
2023/02/12 05:56:25;;;;;;;14.68;4.78;;;5.70;100.00;;;;;;5004648;28;20069;-76
2023/02/12 05:58:57;;;;;;;17.20;5.38;;;5.70;100.00;;;;;;4987726;28;20698;-76
2023/02/12 06:01:28;;;;;;;19.95;4.57;;;5.70;100.00;;;;;;5004572;28;20486;-77
2023/02/12 06:03:55;;;;;;;17.45;4.93;;;5.70;100.00;;;;;;5005407;28;20046;-76
2023/02/12 06:06:25;;;;;;;19.50;4.90;;;5.70;100.00;;;;;;5005903;28;20042;-76
2023/02/12 06:08:53;;;;;;;21.80;4.90;;;5.70;100.00;;;;;;4993843;28;20046;-77
2023/02/12 06:11:19;;;;;;;20.02;5.20;;;5.70;100.00;;;;;;5004193;28;20054;-77
2023/02/12 06:13:47;;;;;;;17.75;5.55;;;5.70;100.00;;;;;;4987532;28;20087;-76
2023/02/12 06:16:26;;;;;;;22.88;4.70;;;5.70;100.00;;;;;;5006017;28;20077;-77
2023/02/12 06:18:54;;;;;;;18.25;4.45;;;5.70;100.00;;;;;;4988320;28;20104;-77
2023/02/12 06:21:22;;;;;;;13.10;4.38;;;5.70;100.00;;;;;;4988012;28;20165;-77
2023/02/12 06:23:50;;;;;;;15.35;4.63;;;5.70;100.00;;;;;;5005132;28;20046;-76
2023/02/12 06:26:17;;;;;;;18.95;4.85;;;5.70;100.00;;;;;;5005816;28;20402;-77
2023/02/12 06:28:45;;;;;;;13.80;4.53;;;5.70;100.00;;;;;;5005166;28;20046;-77
2023/02/12 06:31:17;;;;;;;21.08;4.15;;;5.70;100.00;;;;;;5005966;28;20439;-77
2023/02/12 06:33:44;;;;;;;16.45;3.75;;;5.70;100.00;;;;;;5004937;28;20139;-77
2023/02/12 06:36:11;;;;;;;24.55;4.78;;;5.70;100.00;;;;;;4989386;28;20054;-77
2023/02/12 06:38:38;;;;;;;18.05;4.80;;;5.70;100.00;;;;;;5005507;28;20060;-76
2023/02/12 06:41:05;;;;;;;15.45;5.15;;;5.70;100.00;;;;;;5004703;28;20646;-77
2023/02/12 06:43:32;;;;;;;22.42;5.38;;;5.70;100.00;;;;;;5009817;28;20049;-76
2023/02/12 06:46:03;;;;;;;23.50;4.85;;;5.70;100.00;;;;;;5008626;28;20487;-77
2023/02/12 06:48:30;;;;;;;17.35;4.90;;;5.70;100.00;;;;;;5009015;28;20089;-77
2023/02/12 06:51:07;;;;;;;18.95;4.95;;;5.70;100.00;;;;;;5009037;28;20134;-76
2023/02/12 06:53:34;;;;;;;18.83;4.22;;;5.70;100.00;;;;;;5009017;28;20054;-77
2023/02/12 06:56:03;;;;;;;22.80;5.35;;;5.70;100.00;;;;;;5007526;28;20502;-77
2023/02/12 06:58:30;;;;;;;14.13;4.45;;;5.70;100.00;;;;;;4988455;28;20065;-77
2023/02/12 07:01:16;;;;;;;16.17;4.35;;;5.70;100.00;;;;;;4989197;28;20050;-77
2023/02/12 07:03:48;;;;;;;24.42;5.22;;;5.70;100.00;;;;;;4991450;28;20475;-76
2023/02/12 07:06:16;;;;;;;21.70;5.22;;;5.70;100.00;;;;;;4991875;28;20176;-77
2023/02/12 07:08:43;;;;;;;23.48;5.03;;;5.70;100.00;;;;;;4990075;28;20157;-77
2023/02/12 07:11:10;;;;;;;17.90;4.70;;;5.70;100.00;;;;;;4993531;28;20061;-76
2023/02/12 07:13:40;;;;;;;18.13;4.47;;;5.70;100.00;;;;;;4990312;28;20061;-76
2023/02/12 07:16:10;;;;;;;27.50;4.95;;;5.70;100.00;;;;;;5007103;28;20060;-76
2023/02/12 07:18:38;;;;;;;18.25;4.63;;;5.80;100.00;;;;;;5007744;28;20053;-76
2023/02/12 07:21:06;;;;;;;15.05;4.00;;;5.80;100.00;;;;;;4993673;28;20077;-76
2023/02/12 07:23:34;;;;;;;21.45;4.78;;;5.80;100.00;;;;;;4989521;28;20144;-76
2023/02/12 07:26:04;;;;;;;24.38;4.43;;;5.80;100.00;;;;;;4989201;28;20057;-76
2023/02/12 07:28:32;;;;;;;27.95;3.92;;;5.90;100.00;;;;;;4987589;28;20085;-76
2023/02/12 07:31:07;;;;;;;22.42;4.70;;;5.90;100.00;;;;;;5008005;28;20077;-76
2023/02/12 07:33:35;;;;;;;;;;;5.90;100.00;;;;;;5008153;28;20042;-76
2023/02/12 07:36:04;;;;;;;20.10;4.97;;;5.90;100.00;;;;;;4990065;28;19925;-77
2023/02/12 07:38:32;;;;;;;18.60;5.28;;;6.00;100.00;;;;;;5010992;28;20053;-76
2023/02/12 07:41:16;;;;;;;20.17;4.78;;;6.00;100.00;;;;;;4989344;28;20077;-77
2023/02/12 07:43:44;;;;;;;16.73;4.72;;;6.00;100.00;;;;;;4989859;28;20053;-78
2023/02/12 07:46:17;;;;;;;19.20;4.53;;;6.00;100.00;;;;;;4990800;28;20060;-77
2023/02/12 07:48:45;;;;;;;14.65;4.47;;;6.10;100.00;;;;;;4989232;28;20046;-77
2023/02/12 07:51:15;;;;;;;23.67;4.90;;;6.10;100.00;;;;;;4989447;28;20248;-77
2023/02/12 07:53:42;;;;;;;20.00;4.22;;;6.10;100.00;;;;;;4989026;28;20100;-77
2023/02/12 07:56:12;;;;;;;19.02;4.90;;;6.10;100.00;;;;;;5006589;28;20061;-77
2023/02/12 07:58:40;;;;;;;14.00;5.13;;;6.20;100.00;;;;;;4987601;28;20407;-78
2023/02/12 08:01:32;;;;;;;13.45;4.47;;;6.20;100.00;;;;;;4987525;28;20064;-77
2023/02/12 08:04:01;;;;;;;13.00;5.00;;;6.20;100.00;;;;;;4985241;28;20046;-77
2023/02/12 08:06:31;;;;;;;17.88;5.30;;;6.30;100.00;;;;;;4987510;28;20053;-77
2023/02/12 08:09:03;;;;;;;11.55;4.80;;;6.30;100.00;;;;;;4986779;28;20137;-77
2023/02/12 08:11:30;;;;;;;16.48;5.25;;;6.40;100.00;;;;;;4986695;28;20072;-77
2023/02/12 08:13:58;;;;;;;16.15;5.18;;;6.40;100.00;;;;;;4989086;28;20470;-77
2023/02/12 08:16:27;;;;;;;20.60;4.82;;;6.50;100.00;;;;;;4988799;28;20052;-77
2023/02/12 08:18:57;;;;;;;26.10;5.18;;;6.50;100.00;;;;;;4988572;28;20050;-77
2023/02/12 08:21:40;;;;;;;21.42;5.63;;;6.50;100.00;;;;;;5000785;28;20053;-77
2023/02/12 08:24:08;;;;;;;20.88;5.13;;;6.60;100.00;;;;;;5006613;28;20065;-77
2023/02/12 08:26:37;;;;;;;18.02;5.45;;;6.70;100.00;;;;;;4995739;28;20057;-77
2023/02/12 08:29:10;;;;;;;21.95;5.50;;;6.70;99.90;;;;;;5006065;28;20064;-77
2023/02/12 08:31:43;;;;;;;15.68;4.60;;;6.70;99.30;;;;;;4989370;28;20050;-77
2023/02/12 08:34:19;;;;;;;19.17;5.15;;;6.80;99.20;;;;;;5003781;28;20220;-77
2023/02/12 08:36:50;;;;;;;15.98;4.70;;;6.80;98.60;;;;;;4985478;28;20489;-77
2023/02/12 08:39:17;;;;;;;16.52;5.57;;;6.80;98.00;;;;;;5005432;28;20062;-77
2023/02/12 08:41:45;;;;;;;24.52;4.55;;;6.80;98.10;;;;;;4988726;28;20562;-77
2023/02/12 08:44:13;;;;;;;19.58;4.82;;;6.90;98.50;;;;;;4988324;28;20579;-78
2023/02/12 08:46:46;;;;;;;17.52;4.43;;;7.00;97.80;;;;;;5001239;28;20435;-77
2023/02/12 08:49:20;;;;;;;14.75;5.18;;;7.00;97.40;;;;;;4985661;28;20063;-77
2023/02/12 08:51:51;;;;;;;17.23;4.60;;;7.10;97.20;;;;;;5003459;28;20054;-77
2023/02/12 08:54:21;;;;;;;13.55;4.65;;;7.20;95.90;;;;;;4985656;28;20061;-77
2023/02/12 08:56:49;;;;;;;15.13;4.30;;;7.20;96.50;;;;;;4983477;28;20060;-78
2023/02/12 08:59:16;;;;;;;14.95;4.28;;;7.40;95.40;;;;;;5003044;28;20355;-78
2023/02/12 09:01:43;;;;;;;13.25;4.65;;;7.40;95.00;;;;;;4986242;28;20089;-77
2023/02/12 09:04:17;;;;;;;16.48;4.63;;;7.50;94.90;;;;;;4985417;28;20748;-77
2023/02/12 09:06:45;;;;;;;30.13;6.25;;;7.60;95.20;;;;;;5000025;28;20068;-77
2023/02/12 09:09:12;;;;;;;23.70;6.95;;;7.70;94.50;;;;;;4985234;28;20539;-77
2023/02/12 09:11:39;;;;;;;28.58;5.82;;;7.60;93.90;;;;;;5002616;28;20061;-77
2023/02/12 09:14:10;;;;;;;22.08;5.15;;;7.70;94.20;;;;;;4986008;28;20138;-77
2023/02/12 09:16:39;;;;;;;15.27;5.15;;;7.80;94.60;;;;;;4986788;28;20050;-77
2023/02/12 09:19:06;;;;;;;19.58;5.13;;;7.90;94.40;;;;;;5003930;28;20053;-77
2023/02/12 09:21:33;;;;;;;12.80;4.45;;;8.00;92.60;;;;;;5004913;28;20042;-77
2023/02/12 09:24:02;;;;;;;13.40;4.55;;;8.10;94.20;;;;;;5004669;28;20052;-77
2023/02/12 09:26:29;;;;;;;12.25;4.75;;;8.20;92.70;;;;;;4986419;28;20050;-77
2023/02/12 09:28:56;;;;;;;16.25;4.65;;;8.30;92.30;;;;;;5003908;28;20088;-77
2023/02/12 09:31:26;;;;;;;21.80;4.63;;;8.40;90.80;;;;;;5005152;28;20057;-77
2023/02/12 09:34:02;;;;;;;16.15;3.70;;;8.50;91.60;;;;;;5008147;28;20466;-77
2023/02/12 09:36:29;;;;;;;13.85;3.72;;;8.50;89.90;;;;;;4987942;28;20458;-77
2023/02/12 09:38:58;;;;;;;14.80;5.38;;;8.60;91.00;;;;;;4985539;28;20060;-77
2023/02/12 09:41:37;;;;;;;16.48;3.92;;;8.80;91.30;;;;;;5004365;28;20049;-77
2023/02/12 09:44:11;;;;;;;19.20;4.35;;;8.90;90.10;;;;;;5004587;28;20053;-77
2023/02/12 09:46:49;;;;;;;16.48;4.50;;;9.00;88.50;;;;;;4986136;28;20046;-77
2023/02/12 09:49:16;;;;;;;13.20;3.78;;;9.00;88.40;;;;;;5004799;28;20057;-77
2023/02/12 09:51:50;;;;;;;15.93;4.65;;;9.00;87.90;;;;;;4990077;28;20045;-77
2023/02/12 09:54:19;;;;;;;16.30;4.60;;;9.00;88.30;;;;;;5004295;28;20589;-77
2023/02/12 09:56:52;;;;;;;22.45;5.32;;;9.10;88.30;;;;;;5011153;28;20107;-77
2023/02/12 09:59:32;;;;;;;21.70;5.65;;;9.20;88.40;;;;;;5005363;28;20049;-77
2023/02/12 10:01:59;;;;;;;15.32;6.10;;;9.00;87.00;;;;;;5002868;28;20146;-77
2023/02/12 10:04:27;;;;;;;21.08;5.90;;;9.10;87.70;;;;;;4985810;28;20451;-77
2023/02/12 10:07:06;;;;;;;13.35;5.38;;;9.20;88.10;;;;;;5003938;28;20100;-77
2023/02/12 10:09:42;;;;;;;29.15;6.00;;;9.40;88.00;;;;;;4985727;28;20124;-77
2023/02/12 10:12:22;;;;;;;11.48;4.10;;;9.40;86.20;;;;;;4985823;28;20066;-76
2023/02/12 10:15:15;;;;;;;9.82;3.13;;;9.30;87.20;;;;;;5002798;28;20076;-77
2023/02/12 10:18:26;;;;;;;10.90;4.10;;;9.30;87.60;;;;;;5004002;28;20545;-77
2023/02/12 10:21:35;;;;;;;16.35;4.35;;;9.20;86.50;;;;;;4983223;28;20131;-77
2023/02/12 10:24:18;;;;;;;9.98;4.22;;;9.30;86.60;;;;;;4984877;28;20553;-77
2023/02/12 10:26:51;;;;;;;16.33;4.30;;;9.20;86.30;;;;;;5007157;28;20041;-78
2023/02/12 10:29:22;;;;;;;9.55;3.05;;;9.40;87.50;;;;;;4988266;28;20057;-77
2023/02/12 10:32:13;;;;;;;12.68;3.72;;;9.50;86.10;;;;;;5007020;28;20056;-77
2023/02/12 10:34:41;;;;;;;10.85;2.90;;;9.40;85.90;;;;;;4999470;28;20072;-77
2023/02/12 10:37:25;;;;;;;10.77;3.17;;;9.40;85.70;;;;;;5006421;28;20479;-77
2023/02/12 10:39:58;;;;;;;9.07;2.60;;;9.40;85.90;;;;;;4987422;28;20486;-77
2023/02/12 10:42:50;;;;;;;8.88;2.63;;;9.40;85.40;;;;;;4989345;28;20057;-77
2023/02/12 10:45:21;;;;;;;17.13;3.47;;;9.50;85.00;;;;;;4991295;28;20057;-77
2023/02/12 10:47:53;;;;;;;12.98;3.00;;;9.50;85.00;;;;;;5006036;28;20072;-77
2023/02/12 10:50:58;;;;;;;9.90;3.85;;;9.40;85.40;;;;;;4984696;28;20065;-77
2023/02/12 10:53:42;;;;;;;10.35;2.85;;;9.50;85.20;;;;;;4970034;28;20049;-77
2023/02/12 10:56:09;;;;;;;9.98;3.00;;;9.60;84.10;;;;;;4989520;28;20491;-77
2023/02/12 10:58:39;;;;;;;9.10;2.33;;;9.60;83.90;;;;;;5007307;28;20478;-76
2023/02/12 11:01:21;;;;;;;9.40;2.85;;;9.60;84.30;;;;;;4989076;28;20054;-77
2023/02/12 11:03:48;;;;;;;7.93;2.22;;;9.60;83.00;;;;;;4989281;28;20140;-77
2023/02/12 11:06:16;;;;;;;8.90;1.90;;;9.50;83.60;;;;;;4989341;28;20050;-77
2023/02/12 11:08:44;;;;;;;6.50;2.38;;;9.70;84.10;;;;;;4989324;28;20050;-77
2023/02/12 11:11:20;;;;;;;6.00;2.10;;;9.80;83.50;;;;;;4988817;28;20084;-77
2023/02/12 11:14:04;;;;;;;11.15;1.90;;;9.70;83.00;;;;;;5006791;28;20046;-77
2023/02/12 11:16:39;;;;;;;5.35;2.03;;;9.80;83.00;;;;;;4988567;28;20061;-77
2023/02/12 11:19:24;;;;;;;13.13;3.30;;;9.90;83.10;;;;;;4989156;28;20072;-77
2023/02/12 11:21:51;;;;;;;8.10;2.37;;;9.90;82.10;;;;;;4988234;28;20056;-77
2023/02/12 11:24:27;;;;;;;6.43;1.98;;;9.80;82.30;;;;;;5004790;28;20050;-77
2023/02/12 11:27:15;;;;;;;9.25;2.70;;;9.90;82.80;;;;;;4988972;28;20050;-77
2023/02/12 11:29:44;;;;;;;12.10;2.80;;;10.00;83.20;;;;;;4999170;28;20061;-77
2023/02/12 11:32:18;;;;;;;9.43;2.78;;;9.90;82.20;;;;;;4987889;28;20049;-77
2023/02/12 11:35:11;;;;;;;9.93;2.20;;;9.90;81.80;;;;;;5010274;28;20418;-77
2023/02/12 11:37:43;;;;;;;11.13;3.55;;;9.90;82.20;;;;;;4985093;28;20060;-77
2023/02/12 11:40:32;;;;;;;11.85;2.53;;;9.80;82.80;;;;;;5006056;28;20054;-77
2023/02/12 11:43:08;;;;;;;10.15;2.40;;;9.90;82.60;;;;;;5008058;28;20576;-77
2023/02/12 11:45:48;;;;;;;13.68;3.08;;;10.00;83.80;;;;;;5000640;28;20050;-77
2023/02/12 11:48:22;;;;;;;6.93;2.25;;;10.10;82.50;;;;;;5005258;28;20282;-77
2023/02/12 11:50:53;;;;;;;9.75;3.25;;;10.10;81.80;;;;;;5005358;28;20050;-77
2023/02/12 11:53:33;;;;;;;14.85;3.60;;;10.10;82.50;;;;;;4987223;28;20145;-77
2023/02/12 11:56:07;;;;;;;10.18;3.17;;;10.00;82.60;;;;;;4986141;28;20521;-77
2023/02/12 11:58:33;;;;;;;9.77;3.17;;;10.10;82.70;;;;;;5005068;28;20497;-78
2023/02/12 12:01:06;;;;;;;12.63;4.05;;;10.20;82.90;;;;;;5004122;28;20490;-78
2023/02/12 12:03:39;;;;;;;11.70;3.63;;;10.30;82.00;;;;;;4979884;28;20510;-78
2023/02/12 12:06:35;;;;;;;13.65;3.40;;;10.30;81.10;;;;;;4986960;28;20054;-78
2023/02/12 12:09:21;;;;;;;9.63;3.28;;;10.30;80.50;;;;;;4987381;28;20050;-78
2023/02/12 12:12:03;;;;;;;12.57;3.05;;;10.30;81.20;;;;;;4986584;28;20276;-78
2023/02/12 12:20:47;;;;;;;12.30;3.60;;;10.30;80.90;;;;;;5001507;28;20049;-77
2023/02/12 12:23:19;;;;;;;8.10;3.70;;;10.40;81.60;;;;;;4986871;28;20062;-78
2023/02/12 12:26:02;;;;;;;9.55;3.55;;;10.40;80.70;;;;;;4986670;28;20049;-77
2023/02/12 12:28:35;;;;;;;16.73;4.32;;;10.50;81.50;;;;;;5007765;28;20125;-77
2023/02/12 12:31:13;;;;;;;8.77;3.35;;;10.60;81.00;;;;;;5003839;28;20533;-77
2023/02/12 12:33:46;;;;;;;11.77;4.40;;;10.70;79.80;;;;;;5002122;28;20053;-77
2023/02/12 12:36:13;;;;;;;10.73;3.67;;;10.60;80.70;;;;;;5003954;28;20053;-77
2023/02/12 12:39:20;;;;;;;9.18;4.22;;;10.60;80.90;;;;;;4986267;28;20054;-77
2023/02/12 12:42:25;;;;;;;11.25;4.47;;;10.70;81.80;;;;;;5002174;28;20045;-77
2023/02/12 12:45:08;;;;;;;11.18;4.35;;;10.80;80.80;;;;;;4999882;28;20056;-77
2023/02/12 12:48:01;;;;;;;10.32;4.07;;;10.70;81.10;;;;;;5005697;28;20042;-77
2023/02/12 12:51:16;;;;;;;13.52;4.38;;;10.80;79.90;;;;;;4983639;28;20045;-76
2023/02/12 12:53:54;;;;;;;14.95;4.45;;;10.80;81.20;;;;;;4958900;28;20062;-76
2023/02/12 12:56:24;;;;;;;15.27;5.03;;;10.80;81.10;;;;;;5003958;28;20056;-76
2023/02/12 12:59:20;;;;;;;13.68;5.10;;;10.80;81.70;;;;;;5003458;28;20431;-76
2023/02/12 13:02:14;;;;;;;9.10;4.53;;;10.90;81.50;;;;;;4969262;28;20271;-76
2023/02/12 13:05:12;;;;;;;10.50;4.35;;;10.90;80.50;;;;;;5002609;28;20045;-77
2023/02/12 13:07:53;;;;;;;14.27;4.60;;;10.90;80.30;;;;;;4983505;28;20054;-78
2023/02/12 13:10:32;;;;;;;13.75;4.78;;;11.00;80.30;;;;;;5005627;28;20049;-78
2023/02/12 13:13:18;;;;;;;13.02;4.40;;;10.90;79.20;;;;;;5006598;28;20137;-77
2023/02/12 13:16:20;;;;;;;11.93;4.57;;;10.80;78.90;;;;;;4985147;28;20402;-77
2023/02/12 13:19:05;;;;;;;16.05;4.35;;;10.90;80.80;;;;;;4949911;28;20119;-77
2023/02/12 13:21:57;;;;;;;10.15;3.97;;;10.90;79.80;;;;;;4994047;28;20076;-77
2023/02/12 13:24:57;;;;;;;13.43;4.30;;;11.00;78.60;;;;;;4987563;28;20046;-77
2023/02/12 13:27:29;;;;;;;11.70;4.20;;;11.00;79.60;;;;;;4988709;28;20148;-77